<?xml version="1.0" encoding="UTF-8"?>
<gpx version="1.1" creator="https://www.youtrack.es" xsi:schemaLocation="http://www.topografix.com/GPX/1/1 http://www.topografix.com/GPX/1/1/gpx.xsd http://www.garmin.com/xmlschemas/GpxExtensions/v3 http://www.garmin.com/xmlschemas/GpxExtensionsv3.xsd http://www.garmin.com/xmlschemas/TrackPointExtension/v1 http://www.garmin.com/xmlschemas/TrackPointExtensionv1.xsd" xmlns:gpxtpx="http://www.garmin.com/xmlschemas/TrackPointExtension/v1" xmlns:gpxx="http://www.garmin.com/xmlschemas/GpxExtensions/v3" xmlns:xsi="http://www.w3.org/2001/XMLSchema-instance">
  <metadata>
    <author>
      <name>Nizan Freedman</name>
      <email id="nizanfs" domain="gmail.com"/>
    </author>
    <link href="https://www.youtrack.es">
      <text>YouTrack.es</text>
    </link>
    <time>2026-05-08T16:26:03Z</time>
  </metadata>
  <trk>
    <src>https://www.youtrack.es</src>
    <link href="https://www.youtrack.es/ruta/27-nizan">
      <text>YouTrack.es</text>
    </link>
    <trkseg>
      <trkpt lat="41.693602" lon="2.263491">
        <ele>508.00</ele>
        <time>2020-05-14T07:40:53Z</time>
      </trkpt>
      <trkpt lat="41.693587" lon="2.263491">
        <ele>508.00</ele>
        <time>2020-05-14T07:40:54Z</time>
      </trkpt>
      <trkpt lat="41.693573" lon="2.263491">
        <ele>508.00</ele>
        <time>2020-05-14T07:40:55Z</time>
      </trkpt>
      <trkpt lat="41.693463" lon="2.263513">
        <ele>507.70</ele>
        <time>2020-05-14T07:40:56Z</time>
      </trkpt>
      <trkpt lat="41.693398" lon="2.263555">
        <ele>507.60</ele>
        <time>2020-05-14T07:40:57Z</time>
      </trkpt>
      <trkpt lat="41.693324" lon="2.263579">
        <ele>507.00</ele>
        <time>2020-05-14T07:40:58Z</time>
      </trkpt>
      <trkpt lat="41.693250" lon="2.263572">
        <ele>506.30</ele>
        <time>2020-05-14T07:40:59Z</time>
      </trkpt>
      <trkpt lat="41.693128" lon="2.263512">
        <ele>504.40</ele>
        <time>2020-05-14T07:41:01Z</time>
      </trkpt>
      <trkpt lat="41.693098" lon="2.263498">
        <ele>503.90</ele>
        <time>2020-05-14T07:41:02Z</time>
      </trkpt>
      <trkpt lat="41.693048" lon="2.263487">
        <ele>503.50</ele>
        <time>2020-05-14T07:41:03Z</time>
      </trkpt>
      <trkpt lat="41.693004" lon="2.263562">
        <ele>502.80</ele>
        <time>2020-05-14T07:41:03Z</time>
      </trkpt>
      <trkpt lat="41.693022" lon="2.263512">
        <ele>503.00</ele>
        <time>2020-05-14T07:41:04Z</time>
      </trkpt>
      <trkpt lat="41.692846" lon="2.263498">
        <ele>500.50</ele>
        <time>2020-05-14T07:41:06Z</time>
      </trkpt>
      <trkpt lat="41.692729" lon="2.263484">
        <ele>498.70</ele>
        <time>2020-05-14T07:41:07Z</time>
      </trkpt>
      <trkpt lat="41.692467" lon="2.263437">
        <ele>494.70</ele>
        <time>2020-05-14T07:41:09Z</time>
      </trkpt>
      <trkpt lat="41.692250" lon="2.263337">
        <ele>490.50</ele>
        <time>2020-05-14T07:41:11Z</time>
      </trkpt>
      <trkpt lat="41.692049" lon="2.263250">
        <ele>486.90</ele>
        <time>2020-05-14T07:41:13Z</time>
      </trkpt>
      <trkpt lat="41.691867" lon="2.263218">
        <ele>483.30</ele>
        <time>2020-05-14T07:41:15Z</time>
      </trkpt>
      <trkpt lat="41.691790" lon="2.263246">
        <ele>482.30</ele>
        <time>2020-05-14T07:41:16Z</time>
      </trkpt>
      <trkpt lat="41.691657" lon="2.263358">
        <ele>478.80</ele>
        <time>2020-05-14T07:41:18Z</time>
      </trkpt>
      <trkpt lat="41.691591" lon="2.263430">
        <ele>477.10</ele>
        <time>2020-05-14T07:41:19Z</time>
      </trkpt>
      <trkpt lat="41.691479" lon="2.263595">
        <ele>475.10</ele>
        <time>2020-05-14T07:41:21Z</time>
      </trkpt>
      <trkpt lat="41.691414" lon="2.263690">
        <ele>473.60</ele>
        <time>2020-05-14T07:41:22Z</time>
      </trkpt>
      <trkpt lat="41.691341" lon="2.263773">
        <ele>470.60</ele>
        <time>2020-05-14T07:41:23Z</time>
      </trkpt>
      <trkpt lat="41.691259" lon="2.263832">
        <ele>468.80</ele>
        <time>2020-05-14T07:41:24Z</time>
      </trkpt>
      <trkpt lat="41.691168" lon="2.263873">
        <ele>466.30</ele>
        <time>2020-05-14T07:41:25Z</time>
      </trkpt>
      <trkpt lat="41.690992" lon="2.263944">
        <ele>462.00</ele>
        <time>2020-05-14T07:41:27Z</time>
      </trkpt>
      <trkpt lat="41.690846" lon="2.264047">
        <ele>458.20</ele>
        <time>2020-05-14T07:41:29Z</time>
      </trkpt>
      <trkpt lat="41.690765" lon="2.264254">
        <ele>456.50</ele>
        <time>2020-05-14T07:41:31Z</time>
      </trkpt>
      <trkpt lat="41.690752" lon="2.264412">
        <ele>455.10</ele>
        <time>2020-05-14T07:41:32Z</time>
      </trkpt>
      <trkpt lat="41.690741" lon="2.264711">
        <ele>452.50</ele>
        <time>2020-05-14T07:41:34Z</time>
      </trkpt>
      <trkpt lat="41.690716" lon="2.264954">
        <ele>449.00</ele>
        <time>2020-05-14T07:41:36Z</time>
      </trkpt>
      <trkpt lat="41.690687" lon="2.265058">
        <ele>447.60</ele>
        <time>2020-05-14T07:41:37Z</time>
      </trkpt>
      <trkpt lat="41.690644" lon="2.265144">
        <ele>445.90</ele>
        <time>2020-05-14T07:41:38Z</time>
      </trkpt>
      <trkpt lat="41.690522" lon="2.265190">
        <ele>443.60</ele>
        <time>2020-05-14T07:41:40Z</time>
      </trkpt>
      <trkpt lat="41.690400" lon="2.265242">
        <ele>441.30</ele>
        <time>2020-05-14T07:41:42Z</time>
      </trkpt>
      <trkpt lat="41.690330" lon="2.265281">
        <ele>439.70</ele>
        <time>2020-05-14T07:41:43Z</time>
      </trkpt>
      <trkpt lat="41.690263" lon="2.265330">
        <ele>437.40</ele>
        <time>2020-05-14T07:41:44Z</time>
      </trkpt>
      <trkpt lat="41.690135" lon="2.265486">
        <ele>433.70</ele>
        <time>2020-05-14T07:41:46Z</time>
      </trkpt>
      <trkpt lat="41.690038" lon="2.265611">
        <ele>430.10</ele>
        <time>2020-05-14T07:41:48Z</time>
      </trkpt>
      <trkpt lat="41.690073" lon="2.265694">
        <ele>428.70</ele>
        <time>2020-05-14T07:41:50Z</time>
      </trkpt>
      <trkpt lat="41.690090" lon="2.265731">
        <ele>427.80</ele>
        <time>2020-05-14T07:41:51Z</time>
      </trkpt>
      <trkpt lat="41.690059" lon="2.265779">
        <ele>426.50</ele>
        <time>2020-05-14T07:41:52Z</time>
      </trkpt>
      <trkpt lat="41.690025" lon="2.265826">
        <ele>425.20</ele>
        <time>2020-05-14T07:41:53Z</time>
      </trkpt>
      <trkpt lat="41.689928" lon="2.265924">
        <ele>422.40</ele>
        <time>2020-05-14T07:41:55Z</time>
      </trkpt>
      <trkpt lat="41.689902" lon="2.265987">
        <ele>420.60</ele>
        <time>2020-05-14T07:41:56Z</time>
      </trkpt>
      <trkpt lat="41.689891" lon="2.266066">
        <ele>418.40</ele>
        <time>2020-05-14T07:41:57Z</time>
      </trkpt>
      <trkpt lat="41.689857" lon="2.266277">
        <ele>413.70</ele>
        <time>2020-05-14T07:41:59Z</time>
      </trkpt>
      <trkpt lat="41.689828" lon="2.266388">
        <ele>411.80</ele>
        <time>2020-05-14T07:42:00Z</time>
      </trkpt>
      <trkpt lat="41.689753" lon="2.266567">
        <ele>408.10</ele>
        <time>2020-05-14T07:42:02Z</time>
      </trkpt>
      <trkpt lat="41.689729" lon="2.266652">
        <ele>406.30</ele>
        <time>2020-05-14T07:42:03Z</time>
      </trkpt>
      <trkpt lat="41.689730" lon="2.266742">
        <ele>405.20</ele>
        <time>2020-05-14T07:42:04Z</time>
      </trkpt>
      <trkpt lat="41.689788" lon="2.266872">
        <ele>404.40</ele>
        <time>2020-05-14T07:42:06Z</time>
      </trkpt>
      <trkpt lat="41.689820" lon="2.266910">
        <ele>404.40</ele>
        <time>2020-05-14T07:42:07Z</time>
      </trkpt>
      <trkpt lat="41.689878" lon="2.266994">
        <ele>404.20</ele>
        <time>2020-05-14T07:42:09Z</time>
      </trkpt>
      <trkpt lat="41.689894" lon="2.267054">
        <ele>403.20</ele>
        <time>2020-05-14T07:42:10Z</time>
      </trkpt>
      <trkpt lat="41.689887" lon="2.267124">
        <ele>402.70</ele>
        <time>2020-05-14T07:42:11Z</time>
      </trkpt>
      <trkpt lat="41.689832" lon="2.267316">
        <ele>399.10</ele>
        <time>2020-05-14T07:42:13Z</time>
      </trkpt>
      <trkpt lat="41.689763" lon="2.267546">
        <ele>395.10</ele>
        <time>2020-05-14T07:42:15Z</time>
      </trkpt>
      <trkpt lat="41.689723" lon="2.267664">
        <ele>393.10</ele>
        <time>2020-05-14T07:42:16Z</time>
      </trkpt>
      <trkpt lat="41.689683" lon="2.267780">
        <ele>391.20</ele>
        <time>2020-05-14T07:42:17Z</time>
      </trkpt>
      <trkpt lat="41.689588" lon="2.267987">
        <ele>387.30</ele>
        <time>2020-05-14T07:42:19Z</time>
      </trkpt>
      <trkpt lat="41.689529" lon="2.268098">
        <ele>384.50</ele>
        <time>2020-05-14T07:42:20Z</time>
      </trkpt>
      <trkpt lat="41.689433" lon="2.268334">
        <ele>379.40</ele>
        <time>2020-05-14T07:42:22Z</time>
      </trkpt>
      <trkpt lat="41.689397" lon="2.268628">
        <ele>376.50</ele>
        <time>2020-05-14T07:42:24Z</time>
      </trkpt>
      <trkpt lat="41.689379" lon="2.268773">
        <ele>374.50</ele>
        <time>2020-05-14T07:42:25Z</time>
      </trkpt>
      <trkpt lat="41.689334" lon="2.268889">
        <ele>373.00</ele>
        <time>2020-05-14T07:42:26Z</time>
      </trkpt>
      <trkpt lat="41.689287" lon="2.268983">
        <ele>370.30</ele>
        <time>2020-05-14T07:42:27Z</time>
      </trkpt>
      <trkpt lat="41.689236" lon="2.269178">
        <ele>368.20</ele>
        <time>2020-05-14T07:42:29Z</time>
      </trkpt>
      <trkpt lat="41.689225" lon="2.269298">
        <ele>366.10</ele>
        <time>2020-05-14T07:42:30Z</time>
      </trkpt>
      <trkpt lat="41.689207" lon="2.269423">
        <ele>364.80</ele>
        <time>2020-05-14T07:42:31Z</time>
      </trkpt>
      <trkpt lat="41.689137" lon="2.269644">
        <ele>361.10</ele>
        <time>2020-05-14T07:42:33Z</time>
      </trkpt>
      <trkpt lat="41.689084" lon="2.269738">
        <ele>358.80</ele>
        <time>2020-05-14T07:42:34Z</time>
      </trkpt>
      <trkpt lat="41.688992" lon="2.269910">
        <ele>355.00</ele>
        <time>2020-05-14T07:42:36Z</time>
      </trkpt>
      <trkpt lat="41.688953" lon="2.270128">
        <ele>351.40</ele>
        <time>2020-05-14T07:42:38Z</time>
      </trkpt>
      <trkpt lat="41.688952" lon="2.270234">
        <ele>349.40</ele>
        <time>2020-05-14T07:42:39Z</time>
      </trkpt>
      <trkpt lat="41.688933" lon="2.270455">
        <ele>345.20</ele>
        <time>2020-05-14T07:42:41Z</time>
      </trkpt>
      <trkpt lat="41.688905" lon="2.270557">
        <ele>343.10</ele>
        <time>2020-05-14T07:42:42Z</time>
      </trkpt>
      <trkpt lat="41.688877" lon="2.270669">
        <ele>340.60</ele>
        <time>2020-05-14T07:42:43Z</time>
      </trkpt>
      <trkpt lat="41.688823" lon="2.270892">
        <ele>335.80</ele>
        <time>2020-05-14T07:42:45Z</time>
      </trkpt>
      <trkpt lat="41.688733" lon="2.271092">
        <ele>330.90</ele>
        <time>2020-05-14T07:42:47Z</time>
      </trkpt>
      <trkpt lat="41.688693" lon="2.271167">
        <ele>329.30</ele>
        <time>2020-05-14T07:42:48Z</time>
      </trkpt>
      <trkpt lat="41.688658" lon="2.271256">
        <ele>328.10</ele>
        <time>2020-05-14T07:42:50Z</time>
      </trkpt>
      <trkpt lat="41.688674" lon="2.271315">
        <ele>327.60</ele>
        <time>2020-05-14T07:42:51Z</time>
      </trkpt>
      <trkpt lat="41.688685" lon="2.271339">
        <ele>327.10</ele>
        <time>2020-05-14T07:42:52Z</time>
      </trkpt>
      <trkpt lat="41.688688" lon="2.271501">
        <ele>325.60</ele>
        <time>2020-05-14T07:42:54Z</time>
      </trkpt>
      <trkpt lat="41.688677" lon="2.271587">
        <ele>325.00</ele>
        <time>2020-05-14T07:42:55Z</time>
      </trkpt>
      <trkpt lat="41.688668" lon="2.271778">
        <ele>323.60</ele>
        <time>2020-05-14T07:42:57Z</time>
      </trkpt>
      <trkpt lat="41.688682" lon="2.271966">
        <ele>322.40</ele>
        <time>2020-05-14T07:42:59Z</time>
      </trkpt>
      <trkpt lat="41.688696" lon="2.272065">
        <ele>321.80</ele>
        <time>2020-05-14T07:43:00Z</time>
      </trkpt>
      <trkpt lat="41.688707" lon="2.272152">
        <ele>321.20</ele>
        <time>2020-05-14T07:43:01Z</time>
      </trkpt>
      <trkpt lat="41.688728" lon="2.272327">
        <ele>320.10</ele>
        <time>2020-05-14T07:43:03Z</time>
      </trkpt>
      <trkpt lat="41.688741" lon="2.272519">
        <ele>319.70</ele>
        <time>2020-05-14T07:43:05Z</time>
      </trkpt>
      <trkpt lat="41.688737" lon="2.272740">
        <ele>319.50</ele>
        <time>2020-05-14T07:43:07Z</time>
      </trkpt>
      <trkpt lat="41.688686" lon="2.272942">
        <ele>319.50</ele>
        <time>2020-05-14T07:43:09Z</time>
      </trkpt>
      <trkpt lat="41.688645" lon="2.273004">
        <ele>319.60</ele>
        <time>2020-05-14T07:43:10Z</time>
      </trkpt>
      <trkpt lat="41.688564" lon="2.273121">
        <ele>319.80</ele>
        <time>2020-05-14T07:43:12Z</time>
      </trkpt>
      <trkpt lat="41.688517" lon="2.273293">
        <ele>319.50</ele>
        <time>2020-05-14T07:43:14Z</time>
      </trkpt>
      <trkpt lat="41.688496" lon="2.273381">
        <ele>319.30</ele>
        <time>2020-05-14T07:43:15Z</time>
      </trkpt>
      <trkpt lat="41.688448" lon="2.273525">
        <ele>318.40</ele>
        <time>2020-05-14T07:43:17Z</time>
      </trkpt>
      <trkpt lat="41.688388" lon="2.273642">
        <ele>317.00</ele>
        <time>2020-05-14T07:43:19Z</time>
      </trkpt>
      <trkpt lat="41.688321" lon="2.273757">
        <ele>315.20</ele>
        <time>2020-05-14T07:43:21Z</time>
      </trkpt>
      <trkpt lat="41.688257" lon="2.273927">
        <ele>312.70</ele>
        <time>2020-05-14T07:43:23Z</time>
      </trkpt>
      <trkpt lat="41.688219" lon="2.274031">
        <ele>311.40</ele>
        <time>2020-05-14T07:43:24Z</time>
      </trkpt>
      <trkpt lat="41.688170" lon="2.274120">
        <ele>310.00</ele>
        <time>2020-05-14T07:43:25Z</time>
      </trkpt>
      <trkpt lat="41.688055" lon="2.274208">
        <ele>306.50</ele>
        <time>2020-05-14T07:43:27Z</time>
      </trkpt>
      <trkpt lat="41.687992" lon="2.274222">
        <ele>304.80</ele>
        <time>2020-05-14T07:43:28Z</time>
      </trkpt>
      <trkpt lat="41.687851" lon="2.274260">
        <ele>302.30</ele>
        <time>2020-05-14T07:43:30Z</time>
      </trkpt>
      <trkpt lat="41.687771" lon="2.274292">
        <ele>300.70</ele>
        <time>2020-05-14T07:43:31Z</time>
      </trkpt>
      <trkpt lat="41.687692" lon="2.274334">
        <ele>299.30</ele>
        <time>2020-05-14T07:43:32Z</time>
      </trkpt>
      <trkpt lat="41.687615" lon="2.274386">
        <ele>296.90</ele>
        <time>2020-05-14T07:43:33Z</time>
      </trkpt>
      <trkpt lat="41.687517" lon="2.274538">
        <ele>294.10</ele>
        <time>2020-05-14T07:43:35Z</time>
      </trkpt>
      <trkpt lat="41.687424" lon="2.274736">
        <ele>290.90</ele>
        <time>2020-05-14T07:43:37Z</time>
      </trkpt>
      <trkpt lat="41.687378" lon="2.274827">
        <ele>289.80</ele>
        <time>2020-05-14T07:43:38Z</time>
      </trkpt>
      <trkpt lat="41.687314" lon="2.275024">
        <ele>287.70</ele>
        <time>2020-05-14T07:43:40Z</time>
      </trkpt>
      <trkpt lat="41.687278" lon="2.275119">
        <ele>286.30</ele>
        <time>2020-05-14T07:43:41Z</time>
      </trkpt>
      <trkpt lat="41.687224" lon="2.275314">
        <ele>284.50</ele>
        <time>2020-05-14T07:43:43Z</time>
      </trkpt>
      <trkpt lat="41.687207" lon="2.275408">
        <ele>283.60</ele>
        <time>2020-05-14T07:43:44Z</time>
      </trkpt>
      <trkpt lat="41.687191" lon="2.275593">
        <ele>282.30</ele>
        <time>2020-05-14T07:43:46Z</time>
      </trkpt>
      <trkpt lat="41.687189" lon="2.275676">
        <ele>281.80</ele>
        <time>2020-05-14T07:43:47Z</time>
      </trkpt>
      <trkpt lat="41.687193" lon="2.275820">
        <ele>281.30</ele>
        <time>2020-05-14T07:43:49Z</time>
      </trkpt>
      <trkpt lat="41.687196" lon="2.275940">
        <ele>280.70</ele>
        <time>2020-05-14T07:43:51Z</time>
      </trkpt>
      <trkpt lat="41.687193" lon="2.275999">
        <ele>280.50</ele>
        <time>2020-05-14T07:43:52Z</time>
      </trkpt>
      <trkpt lat="41.687183" lon="2.276058">
        <ele>280.30</ele>
        <time>2020-05-14T07:43:53Z</time>
      </trkpt>
      <trkpt lat="41.687180" lon="2.276116">
        <ele>279.90</ele>
        <time>2020-05-14T07:43:54Z</time>
      </trkpt>
      <trkpt lat="41.687186" lon="2.276183">
        <ele>279.70</ele>
        <time>2020-05-14T07:43:55Z</time>
      </trkpt>
      <trkpt lat="41.687215" lon="2.276337">
        <ele>279.00</ele>
        <time>2020-05-14T07:43:57Z</time>
      </trkpt>
      <trkpt lat="41.687235" lon="2.276414">
        <ele>278.40</ele>
        <time>2020-05-14T07:43:58Z</time>
      </trkpt>
      <trkpt lat="41.687272" lon="2.276561">
        <ele>277.90</ele>
        <time>2020-05-14T07:44:00Z</time>
      </trkpt>
      <trkpt lat="41.687296" lon="2.276722">
        <ele>276.40</ele>
        <time>2020-05-14T07:44:02Z</time>
      </trkpt>
      <trkpt lat="41.687305" lon="2.276904">
        <ele>274.60</ele>
        <time>2020-05-14T07:44:04Z</time>
      </trkpt>
      <trkpt lat="41.687293" lon="2.277097">
        <ele>271.40</ele>
        <time>2020-05-14T07:44:06Z</time>
      </trkpt>
      <trkpt lat="41.687280" lon="2.277288">
        <ele>268.90</ele>
        <time>2020-05-14T07:44:08Z</time>
      </trkpt>
      <trkpt lat="41.687265" lon="2.277379">
        <ele>267.40</ele>
        <time>2020-05-14T07:44:09Z</time>
      </trkpt>
      <trkpt lat="41.687236" lon="2.277530">
        <ele>264.70</ele>
        <time>2020-05-14T07:44:11Z</time>
      </trkpt>
      <trkpt lat="41.687223" lon="2.277603">
        <ele>264.10</ele>
        <time>2020-05-14T07:44:12Z</time>
      </trkpt>
      <trkpt lat="41.687193" lon="2.277744">
        <ele>261.30</ele>
        <time>2020-05-14T07:44:14Z</time>
      </trkpt>
      <trkpt lat="41.687177" lon="2.277813">
        <ele>260.60</ele>
        <time>2020-05-14T07:44:15Z</time>
      </trkpt>
      <trkpt lat="41.687160" lon="2.277886">
        <ele>259.20</ele>
        <time>2020-05-14T07:44:16Z</time>
      </trkpt>
      <trkpt lat="41.687142" lon="2.277956">
        <ele>258.00</ele>
        <time>2020-05-14T07:44:17Z</time>
      </trkpt>
      <trkpt lat="41.687117" lon="2.278059">
        <ele>256.80</ele>
        <time>2020-05-14T07:44:19Z</time>
      </trkpt>
      <trkpt lat="41.687157" lon="2.278011">
        <ele>257.40</ele>
        <time>2020-05-14T07:44:21Z</time>
      </trkpt>
      <trkpt lat="41.687174" lon="2.277974">
        <ele>258.00</ele>
        <time>2020-05-14T07:44:22Z</time>
      </trkpt>
      <trkpt lat="41.687164" lon="2.277965">
        <ele>258.00</ele>
        <time>2020-05-14T07:44:23Z</time>
      </trkpt>
      <trkpt lat="41.687158" lon="2.277941">
        <ele>258.60</ele>
        <time>2020-05-14T07:44:25Z</time>
      </trkpt>
      <trkpt lat="41.687156" lon="2.277919">
        <ele>258.40</ele>
        <time>2020-05-14T07:44:26Z</time>
      </trkpt>
      <trkpt lat="41.687150" lon="2.277907">
        <ele>258.30</ele>
        <time>2020-05-14T07:44:28Z</time>
      </trkpt>
      <trkpt lat="41.687106" lon="2.277939">
        <ele>257.70</ele>
        <time>2020-05-14T07:44:30Z</time>
      </trkpt>
    </trkseg>
  </trk>
</gpx>
